sensor_id;sensor_type;location;lat;lon;timestamp;P1;durP1;ratioP1;P2;durP2;ratioP2
317;SDS011;146;53.448;10.228;2022-08-01T00:01:59;10.60;;;9.80;;
317;SDS011;146;53.448;10.228;2022-08-01T00:04:26;9.90;;;9.20;;
317;SDS011;146;53.448;10.228;2022-08-01T00:06:53;10.60;;;9.70;;
317;SDS011;146;53.448;10.228;2022-08-01T00:09:20;12.30;;;11.10;;
317;SDS011;146;53.448;10.228;2022-08-01T00:11:48;11.70;;;10.53;;
317;SDS011;146;53.448;10.228;2022-08-01T00:14:15;10.90;;;10.00;;
317;SDS011;146;53.448;10.228;2022-08-01T00:16:41;10.90;;;9.87;;
317;SDS011;146;53.448;10.228;2022-08-01T00:19:08;10.17;;;9.37;;
317;SDS011;146;53.448;10.228;2022-08-01T00:21:35;11.50;;;10.47;;
317;SDS011;146;53.448;10.228;2022-08-01T00:24:02;11.67;;;10.67;;
317;SDS011;146;53.448;10.228;2022-08-01T00:26:29;10.30;;;9.50;;
317;SDS011;146;53.448;10.228;2022-08-01T00:28:57;10.53;;;9.73;;
317;SDS011;146;53.448;10.228;2022-08-01T00:31:23;13.27;;;11.80;;
317;SDS011;146;53.448;10.228;2022-08-01T00:33:50;12.27;;;11.27;;
317;SDS011;146;53.448;10.228;2022-08-01T00:36:17;11.73;;;10.83;;
317;SDS011;146;53.448;10.228;2022-08-01T00:38:44;12.03;;;11.07;;
317;SDS011;146;53.448;10.228;2022-08-01T00:41:11;12.90;;;11.60;;
317;SDS011;146;53.448;10.228;2022-08-01T00:43:37;13.33;;;12.13;;
317;SDS011;146;53.448;10.228;2022-08-01T00:46:05;12.43;;;11.37;;
317;SDS011;146;53.448;10.228;2022-08-01T00:48:32;13.73;;;12.53;;
317;SDS011;146;53.448;10.228;2022-08-01T00:50:59;12.93;;;11.83;;
317;SDS011;146;53.448;10.228;2022-08-01T00:53:26;12.40;;;11.20;;
317;SDS011;146;53.448;10.228;2022-08-01T00:55:53;12.60;;;11.40;;
317;SDS011;146;53.448;10.228;2022-08-01T00:58:20;12.37;;;11.17;;
317;SDS011;146;53.448;10.228;2022-08-01T01:00:46;12.27;;;11.13;;
317;SDS011;146;53.448;10.228;2022-08-01T01:03:15;12.40;;;11.20;;
317;SDS011;146;53.448;10.228;2022-08-01T01:05:45;13.53;;;12.23;;
317;SDS011;146;53.448;10.228;2022-08-01T01:08:19;11.67;;;10.60;;
317;SDS011;146;53.448;10.228;2022-08-01T01:10:52;12.07;;;11.03;;
317;SDS011;146;53.448;10.228;2022-08-01T01:13:25;12.63;;;11.53;;
317;SDS011;146;53.448;10.228;2022-08-01T01:16:03;11.77;;;10.77;;
317;SDS011;146;53.448;10.228;2022-08-01T01:18:35;12.27;;;11.10;;
317;SDS011;146;53.448;10.228;2022-08-01T01:21:07;12.97;;;11.67;;
317;SDS011;146;53.448;10.228;2022-08-01T01:23:50;11.90;;;10.80;;
317;SDS011;146;53.448;10.228;2022-08-01T01:26:30;12.23;;;11.20;;
317;SDS011;146;53.448;10.228;2022-08-01T01:29:07;13.17;;;11.93;;
317;SDS011;146;53.448;10.228;2022-08-01T01:31:39;11.00;;;10.00;;
317;SDS011;146;53.448;10.228;2022-08-01T01:34:09;11.70;;;10.70;;
317;SDS011;146;53.448;10.228;2022-08-01T01:36:39;12.70;;;11.60;;
317;SDS011;146;53.448;10.228;2022-08-01T01:39:07;12.17;;;11.10;;
317;SDS011;146;53.448;10.228;2022-08-01T01:41:34;12.03;;;10.70;;
317;SDS011;146;53.448;10.228;2022-08-01T01:44:02;19.43;;;10.87;;
317;SDS011;146;53.448;10.228;2022-08-01T01:46:32;12.03;;;10.20;;
317;SDS011;146;53.448;10.228;2022-08-01T01:49:00;9.53;;;8.53;;
317;SDS011;146;53.448;10.228;2022-08-01T01:51:27;10.10;;;9.20;;
317;SDS011;146;53.448;10.228;2022-08-01T01:53:56;9.37;;;8.47;;
317;SDS011;146;53.448;10.228;2022-08-01T01:56:23;8.67;;;7.97;;
317;SDS011;146;53.448;10.228;2022-08-01T01:58:52;8.90;;;8.00;;
317;SDS011;146;53.448;10.228;2022-08-01T02:01:21;8.67;;;7.87;;
317;SDS011;146;53.448;10.228;2022-08-01T02:03:53;8.37;;;7.57;;
317;SDS011;146;53.448;10.228;2022-08-01T02:06:22;7.80;;;6.97;;
317;SDS011;146;53.448;10.228;2022-08-01T02:08:51;8.30;;;7.50;;
317;SDS011;146;53.448;10.228;2022-08-01T02:11:19;9.63;;;7.50;;
317;SDS011;146;53.448;10.228;2022-08-01T02:13:48;8.87;;;8.07;;
317;SDS011;146;53.448;10.228;2022-08-01T02:16:20;9.17;;;8.37;;
317;SDS011;146;53.448;10.228;2022-08-01T02:18:50;8.53;;;7.73;;
317;SDS011;146;53.448;10.228;2022-08-01T02:21:19;9.40;;;8.10;;
317;SDS011;146;53.448;10.228;2022-08-01T02:23:52;9.50;;;8.30;;
317;SDS011;146;53.448;10.228;2022-08-01T02:26:20;13.63;;;9.23;;
317;SDS011;146;53.448;10.228;2022-08-01T02:28:49;11.17;;;9.50;;
317;SDS011;146;53.448;10.228;2022-08-01T02:31:20;10.67;;;9.57;;
317;SDS011;146;53.448;10.228;2022-08-01T02:33:53;9.67;;;8.77;;
317;SDS011;146;53.448;10.228;2022-08-01T02:36:25;10.07;;;8.93;;
317;SDS011;146;53.448;10.228;2022-08-01T02:38:53;9.90;;;8.90;;
317;SDS011;146;53.448;10.228;2022-08-01T02:41:22;12.07;;;9.20;;
317;SDS011;146;53.448;10.228;2022-08-01T02:43:51;11.60;;;9.27;;
317;SDS011;146;53.448;10.228;2022-08-01T02:46:21;10.40;;;9.50;;
317;SDS011;146;53.448;10.228;2022-08-01T02:48:52;9.90;;;8.90;;
317;SDS011;146;53.448;10.228;2022-08-01T02:51:21;9.43;;;8.40;;
317;SDS011;146;53.448;10.228;2022-08-01T02:53:51;9.73;;;8.83;;
317;SDS011;146;53.448;10.228;2022-08-01T02:56:19;7.90;;;7.10;;
317;SDS011;146;53.448;10.228;2022-08-01T02:58:48;8.30;;;7.60;;
317;SDS011;146;53.448;10.228;2022-08-01T03:01:17;7.77;;;6.83;;
317;SDS011;146;53.448;10.228;2022-08-01T03:03:44;8.63;;;7.73;;
317;SDS011;146;53.448;10.228;2022-08-01T03:06:12;11.80;;;8.90;;
317;SDS011;146;53.448;10.228;2022-08-01T03:08:41;8.17;;;7.47;;
317;SDS011;146;53.448;10.228;2022-08-01T03:11:11;8.57;;;7.83;;
317;SDS011;146;53.448;10.228;2022-08-01T03:13:39;8.03;;;7.20;;
317;SDS011;146;53.448;10.228;2022-08-01T03:16:08;8.47;;;7.57;;
317;SDS011;146;53.448;10.228;2022-08-01T03:18:36;8.53;;;7.83;;
317;SDS011;146;53.448;10.228;2022-08-01T03:21:04;8.17;;;7.47;;
317;SDS011;146;53.448;10.228;2022-08-01T03:23:34;7.50;;;6.90;;
317;SDS011;146;53.448;10.228;2022-08-01T03:26:04;8.40;;;7.70;;
317;SDS011;146;53.448;10.228;2022-08-01T03:28:31;6.77;;;6.23;;
317;SDS011;146;53.448;10.228;2022-08-01T03:30:59;7.50;;;6.73;;
317;SDS011;146;53.448;10.228;2022-08-01T03:33:28;8.20;;;7.53;;
317;SDS011;146;53.448;10.228;2022-08-01T03:35:55;8.27;;;7.40;;
317;SDS011;146;53.448;10.228;2022-08-01T03:38:23;8.20;;;7.50;;
317;SDS011;146;53.448;10.228;2022-08-01T03:40:53;8.23;;;7.63;;
317;SDS011;146;53.448;10.228;2022-08-01T03:43:29;9.43;;;8.73;;
317;SDS011;146;53.448;10.228;2022-08-01T03:46:02;10.13;;;9.30;;
317;SDS011;146;53.448;10.228;2022-08-01T03:48:33;8.80;;;8.07;;
317;SDS011;146;53.448;10.228;2022-08-01T03:51:03;8.23;;;6.80;;
317;SDS011;146;53.448;10.228;2022-08-01T03:53:31;7.90;;;7.20;;
317;SDS011;146;53.448;10.228;2022-08-01T03:56:00;8.57;;;7.87;;
317;SDS011;146;53.448;10.228;2022-08-01T03:58:30;7.00;;;6.50;;
317;SDS011;146;53.448;10.228;2022-08-01T04:00:57;6.93;;;6.37;;
317;SDS011;146;53.448;10.228;2022-08-01T04:03:24;7.13;;;6.53;;
317;SDS011;146;53.448;10.228;2022-08-01T04:05:52;8.57;;;7.70;;
317;SDS011;146;53.448;10.228;2022-08-01T04:08:19;6.90;;;6.30;;
317;SDS011;146;53.448;10.228;2022-08-01T04:10:46;6.13;;;5.63;;
317;SDS011;146;53.448;10.228;2022-08-01T04:13:13;7.70;;;7.10;;
317;SDS011;146;53.448;10.228;2022-08-01T04:15:41;6.20;;;5.70;;
317;SDS011;146;53.448;10.228;2022-08-01T04:18:07;6.70;;;6.00;;
317;SDS011;146;53.448;10.228;2022-08-01T04:20:35;7.27;;;6.67;;
317;SDS011;146;53.448;10.228;2022-08-01T04:23:01;7.13;;;6.53;;
317;SDS011;146;53.448;10.228;2022-08-01T04:25:29;7.80;;;6.27;;
317;SDS011;146;53.448;10.228;2022-08-01T04:28:00;6.80;;;5.87;;
317;SDS011;146;53.448;10.228;2022-08-01T04:30:30;6.40;;;5.90;;
317;SDS011;146;53.448;10.228;2022-08-01T04:33:01;7.10;;;6.50;;
317;SDS011;146;53.448;10.228;2022-08-01T04:35:32;6.17;;;5.67;;
317;SDS011;146;53.448;10.228;2022-08-01T04:38:01;5.60;;;5.20;;
317;SDS011;146;53.448;10.228;2022-08-01T04:40:28;5.47;;;5.07;;
317;SDS011;146;53.448;10.228;2022-08-01T04:42:56;5.10;;;4.73;;
317;SDS011;146;53.448;10.228;2022-08-01T04:45:23;3.97;;;3.63;;
317;SDS011;146;53.448;10.228;2022-08-01T04:47:50;4.30;;;4.00;;
317;SDS011;146;53.448;10.228;2022-08-01T04:50:19;3.40;;;3.20;;
317;SDS011;146;53.448;10.228;2022-08-01T04:52:47;4.57;;;4.00;;
317;SDS011;146;53.448;10.228;2022-08-01T04:55:14;4.40;;;4.00;;
317;SDS011;146;53.448;10.228;2022-08-01T04:57:42;4.20;;;3.67;;
317;SDS011;146;53.448;10.228;2022-08-01T05:00:11;4.60;;;4.30;;
317;SDS011;146;53.448;10.228;2022-08-01T05:02:38;3.90;;;3.60;;
317;SDS011;146;53.448;10.228;2022-08-01T05:05:05;5.00;;;4.60;;
317;SDS011;146;53.448;10.228;2022-08-01T05:07:34;4.33;;;4.03;;
317;SDS011;146;53.448;10.228;2022-08-01T05:10:01;4.07;;;3.77;;
317;SDS011;146;53.448;10.228;2022-08-01T05:12:31;7.43;;;5.27;;
317;SDS011;146;53.448;10.228;2022-08-01T05:14:58;5.17;;;4.77;;
317;SDS011;146;53.448;10.228;2022-08-01T05:17:29;6.00;;;5.50;;
317;SDS011;146;53.448;10.228;2022-08-01T05:19:56;4.97;;;4.57;;
317;SDS011;146;53.448;10.228;2022-08-01T05:22:23;5.60;;;5.10;;
317;SDS011;146;53.448;10.228;2022-08-01T05:24:51;4.87;;;4.47;;
317;SDS011;146;53.448;10.228;2022-08-01T05:27:18;4.50;;;4.20;;
317;SDS011;146;53.448;10.228;2022-08-01T05:29:45;5.27;;;4.80;;
317;SDS011;146;53.448;10.228;2022-08-01T05:32:12;4.70;;;4.40;;
317;SDS011;146;53.448;10.228;2022-08-01T05:34:38;3.97;;;3.67;;
317;SDS011;146;53.448;10.228;2022-08-01T05:37:05;4.03;;;3.73;;
317;SDS011;146;53.448;10.228;2022-08-01T05:39:33;4.00;;;3.50;;
317;SDS011;146;53.448;10.228;2022-08-01T05:42:01;4.17;;;3.87;;
317;SDS011;146;53.448;10.228;2022-08-01T05:44:28;3.60;;;3.40;;
317;SDS011;146;53.448;10.228;2022-08-01T05:46:55;3.10;;;2.90;;
317;SDS011;146;53.448;10.228;2022-08-01T05:49:22;3.70;;;2.83;;
317;SDS011;146;53.448;10.228;2022-08-01T05:51:48;2.83;;;2.33;;
317;SDS011;146;53.448;10.228;2022-08-01T05:54:15;3.23;;;3.03;;
317;SDS011;146;53.448;10.228;2022-08-01T05:56:42;2.33;;;2.20;;
317;SDS011;146;53.448;10.228;2022-08-01T05:59:10;2.10;;;2.00;;
317;SDS011;146;53.448;10.228;2022-08-01T06:01:37;2.00;;;1.90;;
317;SDS011;146;53.448;10.228;2022-08-01T06:04:04;1.80;;;1.70;;
317;SDS011;146;53.448;10.228;2022-08-01T06:06:30;3.40;;;2.17;;
317;SDS011;146;53.448;10.228;2022-08-01T06:08:57;2.10;;;2.00;;
317;SDS011;146;53.448;10.228;2022-08-01T06:11:24;2.93;;;2.40;;
317;SDS011;146;53.448;10.228;2022-08-01T06:13:51;2.37;;;2.27;;
317;SDS011;146;53.448;10.228;2022-08-01T06:16:20;2.93;;;2.73;;
317;SDS011;146;53.448;10.228;2022-08-01T06:18:46;3.40;;;3.20;;
317;SDS011;146;53.448;10.228;2022-08-01T06:21:13;3.10;;;2.80;;
317;SDS011;146;53.448;10.228;2022-08-01T06:23:40;3.00;;;2.80;;
317;SDS011;146;53.448;10.228;2022-08-01T06:26:07;3.83;;;3.53;;
317;SDS011;146;53.448;10.228;2022-08-01T06:28:34;3.50;;;3.30;;
317;SDS011;146;53.448;10.228;2022-08-01T06:31:01;3.90;;;3.50;;
317;SDS011;146;53.448;10.228;2022-08-01T06:33:29;4.10;;;3.80;;
317;SDS011;146;53.448;10.228;2022-08-01T06:35:56;3.60;;;3.40;;
317;SDS011;146;53.448;10.228;2022-08-01T06:38:22;4.00;;;3.70;;
317;SDS011;146;53.448;10.228;2022-08-01T06:40:49;4.30;;;3.90;;
317;SDS011;146;53.448;10.228;2022-08-01T06:43:16;4.67;;;4.30;;
317;SDS011;146;53.448;10.228;2022-08-01T06:45:44;4.47;;;4.07;;
317;SDS011;146;53.448;10.228;2022-08-01T06:48:11;4.50;;;4.10;;
317;SDS011;146;53.448;10.228;2022-08-01T06:50:39;5.63;;;5.23;;
317;SDS011;146;53.448;10.228;2022-08-01T06:53:06;6.53;;;5.93;;
317;SDS011;146;53.448;10.228;2022-08-01T06:55:33;6.07;;;5.67;;
317;SDS011;146;53.448;10.228;2022-08-01T06:58:00;6.83;;;6.23;;
317;SDS011;146;53.448;10.228;2022-08-01T07:00:26;7.20;;;5.90;;
317;SDS011;146;53.448;10.228;2022-08-01T07:02:54;7.07;;;6.37;;
317;SDS011;146;53.448;10.228;2022-08-01T07:05:22;6.77;;;6.17;;
317;SDS011;146;53.448;10.228;2022-08-01T07:07:50;6.60;;;6.10;;
317;SDS011;146;53.448;10.228;2022-08-01T07:10:17;5.57;;;5.07;;
317;SDS011;146;53.448;10.228;2022-08-01T07:12:44;6.17;;;5.67;;
317;SDS011;146;53.448;10.228;2022-08-01T07:15:11;6.13;;;5.53;;
317;SDS011;146;53.448;10.228;2022-08-01T07:17:38;5.83;;;5.33;;
317;SDS011;146;53.448;10.228;2022-08-01T07:20:06;6.03;;;5.53;;
317;SDS011;146;53.448;10.228;2022-08-01T07:22:34;6.17;;;5.57;;
317;SDS011;146;53.448;10.228;2022-08-01T07:25:03;6.37;;;5.80;;
317;SDS011;146;53.448;10.228;2022-08-01T07:27:30;7.00;;;6.40;;
317;SDS011;146;53.448;10.228;2022-08-01T07:29:57;7.13;;;6.53;;
317;SDS011;146;53.448;10.228;2022-08-01T07:32:24;6.70;;;6.20;;
317;SDS011;146;53.448;10.228;2022-08-01T07:34:51;6.47;;;5.87;;
317;SDS011;146;53.448;10.228;2022-08-01T07:37:18;6.77;;;6.27;;
317;SDS011;146;53.448;10.228;2022-08-01T07:39:45;6.57;;;6.17;;
317;SDS011;146;53.448;10.228;2022-08-01T07:42:13;7.37;;;6.63;;
317;SDS011;146;53.448;10.228;2022-08-01T07:44:39;7.23;;;6.20;;
317;SDS011;146;53.448;10.228;2022-08-01T07:47:06;5.83;;;5.33;;
317;SDS011;146;53.448;10.228;2022-08-01T07:49:33;5.80;;;5.30;;
317;SDS011;146;53.448;10.228;2022-08-01T07:52:00;6.07;;;5.47;;
317;SDS011;146;53.448;10.228;2022-08-01T07:54:27;5.77;;;5.27;;
317;SDS011;146;53.448;10.228;2022-08-01T07:56:54;6.93;;;5.80;;
317;SDS011;146;53.448;10.228;2022-08-01T07:59:22;7.20;;;5.37;;
317;SDS011;146;53.448;10.228;2022-08-01T08:01:49;5.60;;;4.27;;
317;SDS011;146;53.448;10.228;2022-08-01T08:04:16;5.43;;;4.83;;
317;SDS011;146;53.448;10.228;2022-08-01T08:06:43;6.60;;;4.10;;
317;SDS011;146;53.448;10.228;2022-08-01T08:09:12;6.33;;;3.97;;
317;SDS011;146;53.448;10.228;2022-08-01T08:11:39;4.93;;;4.53;;
317;SDS011;146;53.448;10.228;2022-08-01T08:14:08;4.73;;;4.27;;
317;SDS011;146;53.448;10.228;2022-08-01T08:16:36;6.80;;;6.17;;
317;SDS011;146;53.448;10.228;2022-08-01T08:19:03;6.53;;;5.93;;
317;SDS011;146;53.448;10.228;2022-08-01T08:21:29;7.23;;;6.50;;
317;SDS011;146;53.448;10.228;2022-08-01T08:23:56;7.00;;;6.43;;
317;SDS011;146;53.448;10.228;2022-08-01T08:26:40;8.00;;;7.40;;
317;SDS011;146;53.448;10.228;2022-08-01T08:29:07;9.00;;;6.73;;
317;SDS011;146;53.448;10.228;2022-08-01T08:31:35;7.33;;;6.63;;
317;SDS011;146;53.448;10.228;2022-08-01T08:34:02;7.33;;;6.13;;
317;SDS011;146;53.448;10.228;2022-08-01T08:36:29;10.03;;;7.10;;
317;SDS011;146;53.448;10.228;2022-08-01T08:38:56;6.70;;;5.50;;
317;SDS011;146;53.448;10.228;2022-08-01T08:41:24;5.83;;;4.63;;
317;SDS011;146;53.448;10.228;2022-08-01T08:43:50;5.43;;;4.43;;
317;SDS011;146;53.448;10.228;2022-08-01T08:46:18;4.93;;;4.43;;
317;SDS011;146;53.448;10.228;2022-08-01T08:48:47;6.57;;;4.27;;
317;SDS011;146;53.448;10.228;2022-08-01T08:51:14;5.50;;;4.50;;
317;SDS011;146;53.448;10.228;2022-08-01T08:53:45;3.20;;;3.00;;
317;SDS011;146;53.448;10.228;2022-08-01T08:56:13;4.37;;;3.17;;
317;SDS011;146;53.448;10.228;2022-08-01T08:58:41;4.70;;;2.80;;
317;SDS011;146;53.448;10.228;2022-08-01T09:01:10;3.50;;;3.20;;
317;SDS011;146;53.448;10.228;2022-08-01T09:03:37;5.07;;;3.57;;
317;SDS011;146;53.448;10.228;2022-08-01T09:06:06;4.23;;;3.13;;
317;SDS011;146;53.448;10.228;2022-08-01T09:08:33;4.10;;;2.73;;
317;SDS011;146;53.448;10.228;2022-08-01T09:11:00;2.40;;;1.97;;
317;SDS011;146;53.448;10.228;2022-08-01T09:13:26;4.03;;;2.40;;
317;SDS011;146;53.448;10.228;2022-08-01T09:15:54;3.83;;;2.20;;
317;SDS011;146;53.448;10.228;2022-08-01T09:18:27;2.90;;;1.90;;
317;SDS011;146;53.448;10.228;2022-08-01T09:21:14;6.53;;;2.60;;
317;SDS011;146;53.448;10.228;2022-08-01T09:23:43;2.20;;;2.00;;
317;SDS011;146;53.448;10.228;2022-08-01T09:26:12;2.70;;;2.50;;
317;SDS011;146;53.448;10.228;2022-08-01T09:28:41;3.67;;;2.60;;
317;SDS011;146;53.448;10.228;2022-08-01T09:31:08;1.70;;;1.60;;
317;SDS011;146;53.448;10.228;2022-08-01T09:33:47;5.00;;;2.30;;
317;SDS011;146;53.448;10.228;2022-08-01T09:36:20;2.57;;;2.37;;
317;SDS011;146;53.448;10.228;2022-08-01T09:38:47;3.30;;;2.23;;
317;SDS011;146;53.448;10.228;2022-08-01T09:41:14;3.87;;;2.00;;
317;SDS011;146;53.448;10.228;2022-08-01T09:43:47;2.87;;;2.50;;
317;SDS011;146;53.448;10.228;2022-08-01T09:46:15;2.23;;;2.03;;
317;SDS011;146;53.448;10.228;2022-08-01T09:48:54;2.37;;;2.20;;
317;SDS011;146;53.448;10.228;2022-08-01T09:51:30;2.20;;;1.90;;
317;SDS011;146;53.448;10.228;2022-08-01T09:53:59;2.33;;;2.13;;
317;SDS011;146;53.448;10.228;2022-08-01T09:56:35;2.20;;;2.00;;
317;SDS011;146;53.448;10.228;2022-08-01T09:59:03;4.77;;;2.37;;
317;SDS011;146;53.448;10.228;2022-08-01T10:01:41;3.43;;;2.67;;
317;SDS011;146;53.448;10.228;2022-08-01T10:04:10;6.00;;;2.43;;
317;SDS011;146;53.448;10.228;2022-08-01T10:06:41;3.10;;;1.93;;
317;SDS011;146;53.448;10.228;2022-08-01T10:09:09;4.10;;;1.83;;
317;SDS011;146;53.448;10.228;2022-08-01T10:11:37;4.87;;;2.37;;
317;SDS011;146;53.448;10.228;2022-08-01T10:14:05;2.53;;;2.30;;
317;SDS011;146;53.448;10.228;2022-08-01T10:16:47;5.13;;;2.43;;
317;SDS011;146;53.448;10.228;2022-08-01T10:19:54;3.03;;;2.57;;
317;SDS011;146;53.448;10.228;2022-08-01T10:22:24;4.47;;;2.83;;
317;SDS011;146;53.448;10.228;2022-08-01T10:24:54;3.40;;;2.10;;
317;SDS011;146;53.448;10.228;2022-08-01T10:27:22;2.90;;;2.10;;
317;SDS011;146;53.448;10.228;2022-08-01T10:29:51;2.57;;;2.00;;
317;SDS011;146;53.448;10.228;2022-08-01T10:32:21;4.40;;;2.57;;
317;SDS011;146;53.448;10.228;2022-08-01T10:34:48;2.43;;;2.23;;
317;SDS011;146;53.448;10.228;2022-08-01T10:37:15;4.00;;;2.90;;
317;SDS011;146;53.448;10.228;2022-08-01T10:39:44;4.33;;;3.90;;
317;SDS011;146;53.448;10.228;2022-08-01T10:42:11;5.50;;;4.30;;
317;SDS011;146;53.448;10.228;2022-08-01T10:44:38;6.63;;;4.10;;
317;SDS011;146;53.448;10.228;2022-08-01T10:47:06;5.83;;;4.30;;
317;SDS011;146;53.448;10.228;2022-08-01T10:49:36;5.07;;;4.57;;
317;SDS011;146;53.448;10.228;2022-08-01T10:52:06;5.87;;;3.93;;
317;SDS011;146;53.448;10.228;2022-08-01T10:54:38;6.60;;;4.00;;
317;SDS011;146;53.448;10.228;2022-08-01T10:57:07;4.63;;;4.20;;
317;SDS011;146;53.448;10.228;2022-08-01T10:59:35;4.70;;;4.30;;
317;SDS011;146;53.448;10.228;2022-08-01T11:02:19;4.43;;;4.10;;
317;SDS011;146;53.448;10.228;2022-08-01T11:04:54;4.00;;;3.70;;
317;SDS011;146;53.448;10.228;2022-08-01T11:07:24;4.37;;;3.97;;
317;SDS011;146;53.448;10.228;2022-08-01T11:10:08;8.53;;;4.53;;
317;SDS011;146;53.448;10.228;2022-08-01T11:12:44;6.10;;;3.73;;
317;SDS011;146;53.448;10.228;2022-08-01T11:15:20;3.47;;;3.20;;
317;SDS011;146;53.448;10.228;2022-08-01T11:17:51;5.60;;;3.30;;
317;SDS011;146;53.448;10.228;2022-08-01T11:20:19;6.50;;;3.30;;
317;SDS011;146;53.448;10.228;2022-08-01T11:29:12;6.13;;;3.50;;
317;SDS011;146;53.448;10.228;2022-08-01T11:31:40;2.77;;;2.60;;
317;SDS011;146;53.448;10.228;2022-08-01T11:34:07;6.30;;;2.33;;
317;SDS011;146;53.448;10.228;2022-08-01T11:36:34;4.40;;;2.20;;
317;SDS011;146;53.448;10.228;2022-08-01T11:39:14;3.70;;;2.00;;
317;SDS011;146;53.448;10.228;2022-08-01T11:41:43;3.07;;;2.30;;
317;SDS011;146;53.448;10.228;2022-08-01T11:44:13;3.03;;;1.70;;
317;SDS011;146;53.448;10.228;2022-08-01T11:46:48;3.77;;;2.20;;
317;SDS011;146;53.448;10.228;2022-08-01T11:49:27;1.40;;;1.30;;
317;SDS011;146;53.448;10.228;2022-08-01T11:51:58;2.10;;;1.90;;
317;SDS011;146;53.448;10.228;2022-08-01T11:54:27;2.70;;;1.70;;
317;SDS011;146;53.448;10.228;2022-08-01T11:56:55;1.80;;;1.40;;
317;SDS011;146;53.448;10.228;2022-08-01T11:59:24;3.60;;;1.70;;
317;SDS011;146;53.448;10.228;2022-08-01T12:01:51;2.27;;;1.70;;
317;SDS011;146;53.448;10.228;2022-08-01T12:04:19;1.60;;;1.40;;
317;SDS011;146;53.448;10.228;2022-08-01T12:06:46;4.30;;;2.13;;
317;SDS011;146;53.448;10.228;2022-08-01T12:09:19;2.13;;;1.33;;
317;SDS011;146;53.448;10.228;2022-08-01T12:11:48;2.33;;;2.10;;
317;SDS011;146;53.448;10.228;2022-08-01T12:14:16;2.43;;;1.37;;
317;SDS011;146;53.448;10.228;2022-08-01T12:16:49;1.67;;;1.47;;
317;SDS011;146;53.448;10.228;2022-08-01T12:19:21;3.20;;;1.83;;
317;SDS011;146;53.448;10.228;2022-08-01T12:22:05;3.60;;;2.23;;
317;SDS011;146;53.448;10.228;2022-08-01T12:24:34;1.60;;;1.50;;
317;SDS011;146;53.448;10.228;2022-08-01T12:27:02;3.07;;;1.57;;
317;SDS011;146;53.448;10.228;2022-08-01T12:29:36;3.00;;;1.77;;
317;SDS011;146;53.448;10.228;2022-08-01T12:32:13;1.90;;;1.80;;
317;SDS011;146;53.448;10.228;2022-08-01T12:34:48;3.80;;;2.30;;
317;SDS011;146;53.448;10.228;2022-08-01T12:37:15;3.00;;;1.50;;
317;SDS011;146;53.448;10.228;2022-08-01T12:39:42;3.63;;;2.10;;
317;SDS011;146;53.448;10.228;2022-08-01T12:42:10;2.40;;;1.90;;
317;SDS011;146;53.448;10.228;2022-08-01T12:44:38;3.70;;;1.77;;
317;SDS011;146;53.448;10.228;2022-08-01T12:47:07;2.33;;;1.93;;
317;SDS011;146;53.448;10.228;2022-08-01T12:49:35;10.13;;;2.90;;
317;SDS011;146;53.448;10.228;2022-08-01T12:52:03;4.17;;;2.20;;
317;SDS011;146;53.448;10.228;2022-08-01T12:54:30;2.93;;;1.83;;
317;SDS011;146;53.448;10.228;2022-08-01T12:57:25;9.20;;;2.20;;
317;SDS011;146;53.448;10.228;2022-08-01T12:59:52;2.40;;;2.20;;
317;SDS011;146;53.448;10.228;2022-08-01T13:02:21;1.87;;;1.50;;
317;SDS011;146;53.448;10.228;2022-08-01T13:04:58;5.43;;;1.70;;
317;SDS011;146;53.448;10.228;2022-08-01T13:07:34;2.77;;;1.37;;
317;SDS011;146;53.448;10.228;2022-08-01T13:10:02;6.27;;;2.40;;
317;SDS011;146;53.448;10.228;2022-08-01T13:12:29;2.30;;;1.53;;
317;SDS011;146;53.448;10.228;2022-08-01T13:14:56;4.13;;;1.50;;
317;SDS011;146;53.448;10.228;2022-08-01T13:17:31;9.10;;;2.23;;
317;SDS011;146;53.448;10.228;2022-08-01T13:20:00;2.83;;;1.63;;
317;SDS011;146;53.448;10.228;2022-08-01T13:22:33;4.87;;;1.80;;
317;SDS011;146;53.448;10.228;2022-08-01T13:25:10;1.63;;;1.33;;
317;SDS011;146;53.448;10.228;2022-08-01T13:27:38;1.60;;;1.27;;
317;SDS011;146;53.448;10.228;2022-08-01T13:30:11;2.50;;;1.67;;
317;SDS011;146;53.448;10.228;2022-08-01T13:32:41;2.60;;;1.37;;
317;SDS011;146;53.448;10.228;2022-08-01T13:35:09;3.83;;;1.63;;
317;SDS011;146;53.448;10.228;2022-08-01T13:37:38;3.53;;;1.83;;
317;SDS011;146;53.448;10.228;2022-08-01T13:40:06;1.93;;;1.20;;
317;SDS011;146;53.448;10.228;2022-08-01T13:42:34;5.27;;;2.20;;
317;SDS011;146;53.448;10.228;2022-08-01T13:45:02;2.73;;;1.47;;
317;SDS011;146;53.448;10.228;2022-08-01T13:47:32;2.70;;;1.27;;
317;SDS011;146;53.448;10.228;2022-08-01T13:50:00;3.47;;;1.73;;
317;SDS011;146;53.448;10.228;2022-08-01T13:52:27;1.53;;;1.40;;
317;SDS011;146;53.448;10.228;2022-08-01T13:54:56;1.90;;;1.57;;
317;SDS011;146;53.448;10.228;2022-08-01T13:57:23;2.70;;;1.00;;
317;SDS011;146;53.448;10.228;2022-08-01T13:59:50;3.10;;;1.13;;
317;SDS011;146;53.448;10.228;2022-08-01T14:02:17;3.90;;;2.03;;
317;SDS011;146;53.448;10.228;2022-08-01T14:04:44;1.97;;;1.53;;
317;SDS011;146;53.448;10.228;2022-08-01T14:07:12;2.47;;;1.27;;
317;SDS011;146;53.448;10.228;2022-08-01T14:09:39;1.57;;;1.20;;
317;SDS011;146;53.448;10.228;2022-08-01T14:12:06;3.23;;;1.67;;
317;SDS011;146;53.448;10.228;2022-08-01T14:14:33;1.47;;;1.20;;
317;SDS011;146;53.448;10.228;2022-08-01T14:17:00;2.93;;;1.70;;
317;SDS011;146;53.448;10.228;2022-08-01T14:19:27;2.43;;;1.03;;
317;SDS011;146;53.448;10.228;2022-08-01T14:21:54;2.70;;;1.70;;
317;SDS011;146;53.448;10.228;2022-08-01T14:24:23;3.07;;;1.50;;
317;SDS011;146;53.448;10.228;2022-08-01T14:26:51;1.37;;;0.90;;
317;SDS011;146;53.448;10.228;2022-08-01T14:29:18;1.63;;;1.20;;
317;SDS011;146;53.448;10.228;2022-08-01T14:31:45;4.90;;;1.40;;
317;SDS011;146;53.448;10.228;2022-08-01T14:34:12;5.70;;;1.40;;
317;SDS011;146;53.448;10.228;2022-08-01T14:36:38;1.30;;;1.20;;
317;SDS011;146;53.448;10.228;2022-08-01T14:39:05;2.50;;;1.27;;
317;SDS011;146;53.448;10.228;2022-08-01T14:41:33;2.10;;;1.10;;
317;SDS011;146;53.448;10.228;2022-08-01T14:44:00;1.60;;;1.50;;
317;SDS011;146;53.448;10.228;2022-08-01T14:46:27;3.27;;;1.50;;
317;SDS011;146;53.448;10.228;2022-08-01T14:48:54;2.30;;;1.40;;
317;SDS011;146;53.448;10.228;2022-08-01T14:51:21;1.90;;;0.93;;
317;SDS011;146;53.448;10.228;2022-08-01T14:53:47;1.03;;;1.03;;
317;SDS011;146;53.448;10.228;2022-08-01T14:56:14;1.53;;;1.43;;
317;SDS011;146;53.448;10.228;2022-08-01T14:58:43;1.70;;;1.30;;
317;SDS011;146;53.448;10.228;2022-08-01T15:01:10;1.17;;;1.03;;
317;SDS011;146;53.448;10.228;2022-08-01T15:03:37;2.30;;;1.33;;
317;SDS011;146;53.448;10.228;2022-08-01T15:06:04;2.03;;;1.07;;
317;SDS011;146;53.448;10.228;2022-08-01T15:08:31;2.00;;;1.47;;
317;SDS011;146;53.448;10.228;2022-08-01T15:10:58;1.50;;;1.00;;
317;SDS011;146;53.448;10.228;2022-08-01T15:13:25;4.27;;;1.60;;
317;SDS011;146;53.448;10.228;2022-08-01T15:15:54;1.73;;;1.10;;
317;SDS011;146;53.448;10.228;2022-08-01T15:18:20;2.17;;;1.40;;
317;SDS011;146;53.448;10.228;2022-08-01T15:20:47;4.57;;;1.30;;
317;SDS011;146;53.448;10.228;2022-08-01T15:23:14;2.67;;;1.63;;
317;SDS011;146;53.448;10.228;2022-08-01T15:25:41;1.97;;;1.73;;
317;SDS011;146;53.448;10.228;2022-08-01T15:28:08;4.70;;;1.70;;
317;SDS011;146;53.448;10.228;2022-08-01T15:30:35;1.80;;;0.90;;
317;SDS011;146;53.448;10.228;2022-08-01T15:33:03;1.37;;;1.07;;
317;SDS011;146;53.448;10.228;2022-08-01T15:35:30;3.07;;;1.20;;
317;SDS011;146;53.448;10.228;2022-08-01T15:37:57;1.00;;;1.00;;
317;SDS011;146;53.448;10.228;2022-08-01T15:40:24;1.97;;;1.60;;
317;SDS011;146;53.448;10.228;2022-08-01T15:42:51;3.57;;;1.40;;
317;SDS011;146;53.448;10.228;2022-08-01T15:45:18;1.07;;;1.00;;